sensor_id;sensor_type;location;lat;lon;timestamp;P1;durP1;ratioP1;P2;durP2;ratioP2
36441;SDS011;73131;50.820;16.274;2023-11-21T00:00:55;9.00;;;3.30;;
36441;SDS011;73131;50.820;16.274;2023-11-21T00:03:38;8.35;;;3.28;;
36441;SDS011;73131;50.820;16.274;2023-11-21T00:06:06;7.93;;;2.53;;
36441;SDS011;73131;50.820;16.274;2023-11-21T00:08:34;7.53;;;2.60;;
36441;SDS011;73131;50.820;16.274;2023-11-21T00:11:00;7.20;;;2.85;;
36441;SDS011;73131;50.820;16.274;2023-11-21T00:13:26;7.60;;;2.67;;
36441;SDS011;73131;50.820;16.274;2023-11-21T00:15:52;7.95;;;2.63;;
36441;SDS011;73131;50.820;16.274;2023-11-21T00:18:18;10.18;;;3.13;;
36441;SDS011;73131;50.820;16.274;2023-11-21T00:20:44;8.95;;;3.47;;
36441;SDS011;73131;50.820;16.274;2023-11-21T00:23:10;10.00;;;2.95;;
36441;SDS011;73131;50.820;16.274;2023-11-21T00:25:41;9.73;;;3.15;;
36441;SDS011;73131;50.820;16.274;2023-11-21T00:28:09;7.30;;;2.58;;
36441;SDS011;73131;50.820;16.274;2023-11-21T00:30:38;9.75;;;2.80;;
36441;SDS011;73131;50.820;16.274;2023-11-21T00:33:06;9.13;;;3.13;;
36441;SDS011;73131;50.820;16.274;2023-11-21T00:35:33;8.50;;;2.40;;
36441;SDS011;73131;50.820;16.274;2023-11-21T00:38:01;7.70;;;2.60;;
36441;SDS011;73131;50.820;16.274;2023-11-21T00:40:28;6.13;;;2.20;;
36441;SDS011;73131;50.820;16.274;2023-11-21T00:42:56;9.15;;;2.50;;
36441;SDS011;73131;50.820;16.274;2023-11-21T00:45:26;6.90;;;2.38;;
36441;SDS011;73131;50.820;16.274;2023-11-21T00:47:52;6.55;;;2.53;;
36441;SDS011;73131;50.820;16.274;2023-11-21T00:50:21;8.45;;;2.53;;
36441;SDS011;73131;50.820;16.274;2023-11-21T00:52:47;6.20;;;2.38;;
36441;SDS011;73131;50.820;16.274;2023-11-21T00:55:19;9.25;;;2.95;;
36441;SDS011;73131;50.820;16.274;2023-11-21T00:57:48;7.75;;;2.25;;
36441;SDS011;73131;50.820;16.274;2023-11-21T01:00:14;9.27;;;2.47;;
36441;SDS011;73131;50.820;16.274;2023-11-21T01:02:43;10.43;;;2.72;;
36441;SDS011;73131;50.820;16.274;2023-11-21T01:05:12;6.10;;;2.20;;
36441;SDS011;73131;50.820;16.274;2023-11-21T01:07:41;7.75;;;2.45;;
36441;SDS011;73131;50.820;16.274;2023-11-21T01:10:07;12.85;;;3.08;;
36441;SDS011;73131;50.820;16.274;2023-11-21T01:12:35;7.82;;;2.60;;
36441;SDS011;73131;50.820;16.274;2023-11-21T01:15:05;6.90;;;2.30;;
36441;SDS011;73131;50.820;16.274;2023-11-21T01:17:37;6.35;;;2.30;;
36441;SDS011;73131;50.820;16.274;2023-11-21T01:20:04;11.02;;;3.10;;
36441;SDS011;73131;50.820;16.274;2023-11-21T01:22:41;8.35;;;2.70;;
36441;SDS011;73131;50.820;16.274;2023-11-21T01:25:07;7.07;;;2.25;;
36441;SDS011;73131;50.820;16.274;2023-11-21T01:27:38;7.95;;;2.40;;
36441;SDS011;73131;50.820;16.274;2023-11-21T01:30:04;7.00;;;2.75;;
36441;SDS011;73131;50.820;16.274;2023-11-21T01:32:36;7.45;;;2.75;;
36441;SDS011;73131;50.820;16.274;2023-11-21T01:35:03;7.78;;;2.90;;
36441;SDS011;73131;50.820;16.274;2023-11-21T01:37:31;8.48;;;2.70;;
36441;SDS011;73131;50.820;16.274;2023-11-21T01:39:58;9.18;;;2.97;;
36441;SDS011;73131;50.820;16.274;2023-11-21T01:42:26;7.05;;;2.50;;
36441;SDS011;73131;50.820;16.274;2023-11-21T01:44:52;7.65;;;2.97;;
36441;SDS011;73131;50.820;16.274;2023-11-21T01:47:23;6.75;;;2.53;;
36441;SDS011;73131;50.820;16.274;2023-11-21T01:49:49;10.23;;;2.75;;
36441;SDS011;73131;50.820;16.274;2023-11-21T01:52:15;6.90;;;2.83;;
36441;SDS011;73131;50.820;16.274;2023-11-21T01:54:45;7.35;;;3.30;;
36441;SDS011;73131;50.820;16.274;2023-11-21T01:57:13;5.38;;;2.45;;
36441;SDS011;73131;50.820;16.274;2023-11-21T01:59:43;9.90;;;3.33;;
36441;SDS011;73131;50.820;16.274;2023-11-21T02:02:16;8.80;;;2.85;;
36441;SDS011;73131;50.820;16.274;2023-11-21T02:04:42;9.75;;;2.83;;
36441;SDS011;73131;50.820;16.274;2023-11-21T02:07:10;7.88;;;2.85;;
36441;SDS011;73131;50.820;16.274;2023-11-21T02:09:37;6.85;;;2.78;;
36441;SDS011;73131;50.820;16.274;2023-11-21T02:12:08;7.97;;;2.92;;
36441;SDS011;73131;50.820;16.274;2023-11-21T02:14:37;8.80;;;3.00;;
36441;SDS011;73131;50.820;16.274;2023-11-21T02:17:09;7.15;;;3.08;;
36441;SDS011;73131;50.820;16.274;2023-11-21T02:19:37;7.97;;;2.85;;
36441;SDS011;73131;50.820;16.274;2023-11-21T02:22:05;7.93;;;2.92;;
36441;SDS011;73131;50.820;16.274;2023-11-21T02:24:32;8.57;;;3.15;;
36441;SDS011;73131;50.820;16.274;2023-11-21T02:26:58;7.72;;;3.40;;
36441;SDS011;73131;50.820;16.274;2023-11-21T02:29:29;5.90;;;2.78;;
36441;SDS011;73131;50.820;16.274;2023-11-21T02:31:57;10.25;;;3.15;;
36441;SDS011;73131;50.820;16.274;2023-11-21T02:34:25;8.98;;;3.13;;
36441;SDS011;73131;50.820;16.274;2023-11-21T02:36:51;11.18;;;3.40;;
36441;SDS011;73131;50.820;16.274;2023-11-21T02:39:18;8.73;;;2.92;;
36441;SDS011;73131;50.820;16.274;2023-11-21T02:41:47;7.13;;;2.80;;
36441;SDS011;73131;50.820;16.274;2023-11-21T02:44:16;5.55;;;3.20;;
36441;SDS011;73131;50.820;16.274;2023-11-21T02:46:41;8.63;;;3.25;;
36441;SDS011;73131;50.820;16.274;2023-11-21T02:49:10;9.80;;;2.90;;
36441;SDS011;73131;50.820;16.274;2023-11-21T02:51:38;8.35;;;3.22;;
36441;SDS011;73131;50.820;16.274;2023-11-21T02:54:05;7.13;;;2.97;;
36441;SDS011;73131;50.820;16.274;2023-11-21T02:56:35;6.30;;;2.78;;
36441;SDS011;73131;50.820;16.274;2023-11-21T02:59:05;6.80;;;3.80;;
36441;SDS011;73131;50.820;16.274;2023-11-21T03:01:31;7.30;;;3.28;;
36441;SDS011;73131;50.820;16.274;2023-11-21T03:03:57;7.93;;;3.25;;
36441;SDS011;73131;50.820;16.274;2023-11-21T03:06:26;7.50;;;3.15;;
36441;SDS011;73131;50.820;16.274;2023-11-21T03:08:57;9.20;;;3.20;;
36441;SDS011;73131;50.820;16.274;2023-11-21T03:11:23;6.20;;;3.00;;
36441;SDS011;73131;50.820;16.274;2023-11-21T03:13:53;8.65;;;3.30;;
36441;SDS011;73131;50.820;16.274;2023-11-21T03:16:19;7.93;;;3.10;;
36441;SDS011;73131;50.820;16.274;2023-11-21T03:18:46;6.82;;;2.90;;
36441;SDS011;73131;50.820;16.274;2023-11-21T03:21:14;10.60;;;3.30;;
36441;SDS011;73131;50.820;16.274;2023-11-21T03:23:40;7.63;;;3.22;;
36441;SDS011;73131;50.820;16.274;2023-11-21T03:26:06;8.00;;;3.33;;
36441;SDS011;73131;50.820;16.274;2023-11-21T03:28:34;10.55;;;3.88;;
36441;SDS011;73131;50.820;16.274;2023-11-21T03:31:02;9.20;;;3.15;;
36441;SDS011;73131;50.820;16.274;2023-11-21T03:33:34;10.45;;;3.25;;
36441;SDS011;73131;50.820;16.274;2023-11-21T03:36:00;6.72;;;3.00;;
36441;SDS011;73131;50.820;16.274;2023-11-21T03:38:26;7.25;;;3.22;;
36441;SDS011;73131;50.820;16.274;2023-11-21T03:40:57;8.52;;;3.38;;
36441;SDS011;73131;50.820;16.274;2023-11-21T03:43:25;12.23;;;3.90;;
36441;SDS011;73131;50.820;16.274;2023-11-21T03:45:54;6.57;;;2.60;;
36441;SDS011;73131;50.820;16.274;2023-11-21T03:48:20;8.77;;;3.10;;
36441;SDS011;73131;50.820;16.274;2023-11-21T03:50:48;12.45;;;3.70;;
36441;SDS011;73131;50.820;16.274;2023-11-21T03:53:14;10.45;;;4.00;;
36441;SDS011;73131;50.820;16.274;2023-11-21T03:55:40;12.23;;;4.20;;
36441;SDS011;73131;50.820;16.274;2023-11-21T03:58:09;9.07;;;3.50;;
36441;SDS011;73131;50.820;16.274;2023-11-21T04:00:37;8.60;;;3.53;;
36441;SDS011;73131;50.820;16.274;2023-11-21T04:03:03;8.55;;;3.70;;
36441;SDS011;73131;50.820;16.274;2023-11-21T04:05:32;9.30;;;3.63;;
36441;SDS011;73131;50.820;16.274;2023-11-21T04:07:58;11.40;;;3.90;;
36441;SDS011;73131;50.820;16.274;2023-11-21T04:10:27;11.70;;;4.68;;
36441;SDS011;73131;50.820;16.274;2023-11-21T04:12:53;8.95;;;3.35;;
36441;SDS011;73131;50.820;16.274;2023-11-21T04:15:21;10.70;;;4.00;;
36441;SDS011;73131;50.820;16.274;2023-11-21T04:17:47;10.18;;;3.90;;
36441;SDS011;73131;50.820;16.274;2023-11-21T04:20:15;12.32;;;4.13;;
36441;SDS011;73131;50.820;16.274;2023-11-21T04:22:44;10.35;;;4.40;;
36441;SDS011;73131;50.820;16.274;2023-11-21T04:25:10;9.93;;;3.80;;
36441;SDS011;73131;50.820;16.274;2023-11-21T04:27:40;11.50;;;4.82;;
36441;SDS011;73131;50.820;16.274;2023-11-21T04:30:09;9.13;;;3.88;;
36441;SDS011;73131;50.820;16.274;2023-11-21T04:32:39;11.35;;;4.00;;
36441;SDS011;73131;50.820;16.274;2023-11-21T04:35:05;11.60;;;4.07;;
36441;SDS011;73131;50.820;16.274;2023-11-21T04:37:34;12.93;;;4.07;;
36441;SDS011;73131;50.820;16.274;2023-11-21T04:40:02;10.07;;;4.05;;
36441;SDS011;73131;50.820;16.274;2023-11-21T04:42:38;9.48;;;4.40;;
36441;SDS011;73131;50.820;16.274;2023-11-21T04:45:06;11.15;;;4.35;;
36441;SDS011;73131;50.820;16.274;2023-11-21T04:47:37;11.60;;;4.57;;
36441;SDS011;73131;50.820;16.274;2023-11-21T04:50:03;15.23;;;5.35;;
36441;SDS011;73131;50.820;16.274;2023-11-21T04:52:32;11.38;;;4.22;;
36441;SDS011;73131;50.820;16.274;2023-11-21T04:54:58;11.00;;;4.55;;
36441;SDS011;73131;50.820;16.274;2023-11-21T04:57:26;12.40;;;5.50;;
36441;SDS011;73131;50.820;16.274;2023-11-21T04:59:53;11.88;;;5.07;;
36441;SDS011;73131;50.820;16.274;2023-11-21T05:02:22;13.57;;;4.28;;
36441;SDS011;73131;50.820;16.274;2023-11-21T05:04:50;10.80;;;3.85;;
36441;SDS011;73131;50.820;16.274;2023-11-21T05:07:19;11.65;;;4.22;;
36441;SDS011;73131;50.820;16.274;2023-11-21T05:09:49;9.48;;;4.18;;
36441;SDS011;73131;50.820;16.274;2023-11-21T05:12:17;12.50;;;4.28;;
36441;SDS011;73131;50.820;16.274;2023-11-21T05:14:43;12.10;;;4.32;;
36441;SDS011;73131;50.820;16.274;2023-11-21T05:17:12;9.77;;;4.07;;
36441;SDS011;73131;50.820;16.274;2023-11-21T05:19:38;11.77;;;3.95;;
36441;SDS011;73131;50.820;16.274;2023-11-21T05:22:05;11.32;;;4.35;;
36441;SDS011;73131;50.820;16.274;2023-11-21T05:24:31;10.80;;;4.15;;
36441;SDS011;73131;50.820;16.274;2023-11-21T05:26:58;10.73;;;3.92;;
36441;SDS011;73131;50.820;16.274;2023-11-21T05:29:26;8.52;;;3.72;;
36441;SDS011;73131;50.820;16.274;2023-11-21T05:31:54;9.32;;;4.40;;
36441;SDS011;73131;50.820;16.274;2023-11-21T05:34:25;11.20;;;4.05;;
36441;SDS011;73131;50.820;16.274;2023-11-21T05:36:51;11.15;;;4.18;;
36441;SDS011;73131;50.820;16.274;2023-11-21T05:39:20;8.27;;;3.83;;
36441;SDS011;73131;50.820;16.274;2023-11-21T05:41:47;12.68;;;4.57;;
36441;SDS011;73131;50.820;16.274;2023-11-21T05:44:15;11.75;;;5.20;;
36441;SDS011;73131;50.820;16.274;2023-11-21T05:46:44;11.95;;;4.63;;
36441;SDS011;73131;50.820;16.274;2023-11-21T05:49:12;13.35;;;4.75;;
36441;SDS011;73131;50.820;16.274;2023-11-21T05:51:41;9.48;;;3.80;;
36441;SDS011;73131;50.820;16.274;2023-11-21T05:54:07;9.20;;;3.95;;
36441;SDS011;73131;50.820;16.274;2023-11-21T05:56:33;9.50;;;3.65;;
36441;SDS011;73131;50.820;16.274;2023-11-21T05:59:04;11.35;;;4.40;;
36441;SDS011;73131;50.820;16.274;2023-11-21T06:01:34;9.70;;;3.58;;
36441;SDS011;73131;50.820;16.274;2023-11-21T06:04:03;9.15;;;4.03;;
36441;SDS011;73131;50.820;16.274;2023-11-21T06:06:30;9.60;;;3.90;;
36441;SDS011;73131;50.820;16.274;2023-11-21T06:08:56;13.15;;;4.60;;
36441;SDS011;73131;50.820;16.274;2023-11-21T06:11:23;9.93;;;4.28;;
36441;SDS011;73131;50.820;16.274;2023-11-21T06:13:49;10.85;;;3.97;;
36441;SDS011;73131;50.820;16.274;2023-11-21T06:16:18;11.40;;;3.83;;
36441;SDS011;73131;50.820;16.274;2023-11-21T06:18:46;10.85;;;4.28;;
36441;SDS011;73131;50.820;16.274;2023-11-21T06:21:12;9.65;;;4.13;;
36441;SDS011;73131;50.820;16.274;2023-11-21T06:23:38;9.35;;;4.20;;
36441;SDS011;73131;50.820;16.274;2023-11-21T06:26:05;11.90;;;5.15;;
36441;SDS011;73131;50.820;16.274;2023-11-21T06:28:37;10.00;;;3.67;;
36441;SDS011;73131;50.820;16.274;2023-11-21T06:31:03;13.27;;;7.30;;
36441;SDS011;73131;50.820;16.274;2023-11-21T06:33:31;13.18;;;4.00;;
36441;SDS011;73131;50.820;16.274;2023-11-21T06:35:57;8.60;;;3.58;;
36441;SDS011;73131;50.820;16.274;2023-11-21T06:38:23;11.77;;;5.85;;
36441;SDS011;73131;50.820;16.274;2023-11-21T06:40:49;11.52;;;5.90;;
36441;SDS011;73131;50.820;16.274;2023-11-21T06:43:22;13.93;;;5.10;;
36441;SDS011;73131;50.820;16.274;2023-11-21T06:45:48;14.73;;;5.22;;
36441;SDS011;73131;50.820;16.274;2023-11-21T06:48:14;11.38;;;4.93;;
36441;SDS011;73131;50.820;16.274;2023-11-21T06:50:43;11.73;;;4.60;;
36441;SDS011;73131;50.820;16.274;2023-11-21T06:53:11;8.73;;;4.43;;
36441;SDS011;73131;50.820;16.274;2023-11-21T06:55:41;10.68;;;4.80;;
36441;SDS011;73131;50.820;16.274;2023-11-21T06:58:11;11.90;;;4.70;;
36441;SDS011;73131;50.820;16.274;2023-11-21T07:00:37;11.77;;;4.47;;
36441;SDS011;73131;50.820;16.274;2023-11-21T07:03:03;12.27;;;4.93;;
36441;SDS011;73131;50.820;16.274;2023-11-21T07:05:30;10.15;;;4.95;;
36441;SDS011;73131;50.820;16.274;2023-11-21T07:07:56;9.85;;;4.80;;
36441;SDS011;73131;50.820;16.274;2023-11-21T07:10:22;11.43;;;5.50;;
36441;SDS011;73131;50.820;16.274;2023-11-21T07:12:48;11.23;;;5.05;;
36441;SDS011;73131;50.820;16.274;2023-11-21T07:15:14;12.23;;;6.05;;
36441;SDS011;73131;50.820;16.274;2023-11-21T07:17:40;11.32;;;5.82;;
36441;SDS011;73131;50.820;16.274;2023-11-21T07:20:07;15.68;;;6.10;;
36441;SDS011;73131;50.820;16.274;2023-11-21T07:22:36;11.32;;;5.65;;
36441;SDS011;73131;50.820;16.274;2023-11-21T07:25:04;11.73;;;5.55;;
36441;SDS011;73131;50.820;16.274;2023-11-21T07:27:30;11.57;;;5.63;;
36441;SDS011;73131;50.820;16.274;2023-11-21T07:29:59;12.15;;;6.22;;
36441;SDS011;73131;50.820;16.274;2023-11-21T07:32:30;12.88;;;5.40;;
36441;SDS011;73131;50.820;16.274;2023-11-21T07:34:59;11.18;;;5.50;;
36441;SDS011;73131;50.820;16.274;2023-11-21T07:37:29;11.82;;;5.43;;
36441;SDS011;73131;50.820;16.274;2023-11-21T07:39:57;10.80;;;5.40;;
36441;SDS011;73131;50.820;16.274;2023-11-21T07:42:24;9.65;;;4.72;;
36441;SDS011;73131;50.820;16.274;2023-11-21T07:44:52;9.60;;;5.00;;
36441;SDS011;73131;50.820;16.274;2023-11-21T07:47:22;11.02;;;4.90;;
36441;SDS011;73131;50.820;16.274;2023-11-21T07:49:53;11.80;;;4.78;;
36441;SDS011;73131;50.820;16.274;2023-11-21T07:52:24;12.60;;;5.28;;
36441;SDS011;73131;50.820;16.274;2023-11-21T07:54:52;11.27;;;5.40;;
36441;SDS011;73131;50.820;16.274;2023-11-21T07:57:18;10.23;;;5.05;;
36441;SDS011;73131;50.820;16.274;2023-11-21T07:59:44;35.67;;;23.88;;
36441;SDS011;73131;50.820;16.274;2023-11-21T08:02:10;16.15;;;7.93;;
36441;SDS011;73131;50.820;16.274;2023-11-21T08:04:36;14.63;;;6.22;;
36441;SDS011;73131;50.820;16.274;2023-11-21T08:07:07;15.52;;;7.18;;
36441;SDS011;73131;50.820;16.274;2023-11-21T08:09:33;13.10;;;6.10;;
36441;SDS011;73131;50.820;16.274;2023-11-21T08:12:02;12.00;;;6.53;;
36441;SDS011;73131;50.820;16.274;2023-11-21T08:14:33;16.17;;;7.30;;
36441;SDS011;73131;50.820;16.274;2023-11-21T08:17:04;14.02;;;7.07;;
36441;SDS011;73131;50.820;16.274;2023-11-21T08:19:30;12.57;;;6.35;;
36441;SDS011;73131;50.820;16.274;2023-11-21T08:21:56;15.73;;;7.03;;
36441;SDS011;73131;50.820;16.274;2023-11-21T08:24:24;17.00;;;7.45;;
36441;SDS011;73131;50.820;16.274;2023-11-21T08:26:50;17.55;;;8.32;;
36441;SDS011;73131;50.820;16.274;2023-11-21T08:29:19;18.67;;;7.93;;
36441;SDS011;73131;50.820;16.274;2023-11-21T08:31:48;15.20;;;8.35;;
36441;SDS011;73131;50.820;16.274;2023-11-21T08:34:14;14.98;;;8.32;;
36441;SDS011;73131;50.820;16.274;2023-11-21T08:36:46;15.75;;;8.05;;
36441;SDS011;73131;50.820;16.274;2023-11-21T08:39:16;18.95;;;8.15;;
36441;SDS011;73131;50.820;16.274;2023-11-21T08:41:45;14.82;;;7.57;;
36441;SDS011;73131;50.820;16.274;2023-11-21T08:44:13;14.82;;;6.57;;
36441;SDS011;73131;50.820;16.274;2023-11-21T08:46:41;15.20;;;6.72;;
36441;SDS011;73131;50.820;16.274;2023-11-21T08:49:09;15.13;;;6.22;;
36441;SDS011;73131;50.820;16.274;2023-11-21T08:51:37;13.55;;;6.05;;
36441;SDS011;73131;50.820;16.274;2023-11-21T08:54:06;12.10;;;5.72;;
36441;SDS011;73131;50.820;16.274;2023-11-21T08:56:34;10.48;;;4.97;;
36441;SDS011;73131;50.820;16.274;2023-11-21T08:59:00;9.73;;;4.18;;
36441;SDS011;73131;50.820;16.274;2023-11-21T09:01:33;10.25;;;4.25;;
36441;SDS011;73131;50.820;16.274;2023-11-21T09:04:01;10.43;;;4.65;;
36441;SDS011;73131;50.820;16.274;2023-11-21T09:06:32;10.50;;;4.40;;
36441;SDS011;73131;50.820;16.274;2023-11-21T09:09:00;8.70;;;4.22;;
36441;SDS011;73131;50.820;16.274;2023-11-21T09:11:27;7.43;;;3.90;;
36441;SDS011;73131;50.820;16.274;2023-11-21T09:13:59;9.13;;;3.88;;
36441;SDS011;73131;50.820;16.274;2023-11-21T09:16:28;11.70;;;3.97;;
36441;SDS011;73131;50.820;16.274;2023-11-21T09:18:55;11.48;;;4.00;;
36441;SDS011;73131;50.820;16.274;2023-11-21T09:21:21;8.45;;;3.97;;
36441;SDS011;73131;50.820;16.274;2023-11-21T09:23:55;10.30;;;3.70;;
36441;SDS011;73131;50.820;16.274;2023-11-21T09:26:23;11.32;;;3.72;;
36441;SDS011;73131;50.820;16.274;2023-11-21T09:28:52;9.35;;;3.40;;
36441;SDS011;73131;50.820;16.274;2023-11-21T09:31:18;6.93;;;2.83;;
36441;SDS011;73131;50.820;16.274;2023-11-21T09:33:48;8.13;;;3.90;;
36441;SDS011;73131;50.820;16.274;2023-11-21T09:36:16;5.80;;;2.40;;
36441;SDS011;73131;50.820;16.274;2023-11-21T09:38:44;3.70;;;1.85;;
36441;SDS011;73131;50.820;16.274;2023-11-21T09:41:15;6.53;;;2.25;;
36441;SDS011;73131;50.820;16.274;2023-11-21T09:43:46;3.38;;;2.05;;
36441;SDS011;73131;50.820;16.274;2023-11-21T09:46:19;5.63;;;2.10;;
36441;SDS011;73131;50.820;16.274;2023-11-21T09:48:48;5.68;;;2.20;;
36441;SDS011;73131;50.820;16.274;2023-11-21T09:51:22;5.97;;;1.98;;
36441;SDS011;73131;50.820;16.274;2023-11-21T09:53:58;6.28;;;2.55;;
36441;SDS011;73131;50.820;16.274;2023-11-21T09:56:26;4.78;;;2.45;;
36441;SDS011;73131;50.820;16.274;2023-11-21T09:58:53;4.50;;;2.17;;
36441;SDS011;73131;50.820;16.274;2023-11-21T10:01:22;5.35;;;2.17;;
36441;SDS011;73131;50.820;16.274;2023-11-21T10:03:50;5.90;;;2.20;;
36441;SDS011;73131;50.820;16.274;2023-11-21T10:06:16;4.88;;;1.77;;
36441;SDS011;73131;50.820;16.274;2023-11-21T10:08:47;7.63;;;3.17;;
36441;SDS011;73131;50.820;16.274;2023-11-21T10:11:18;5.60;;;2.53;;
36441;SDS011;73131;50.820;16.274;2023-11-21T10:13:48;5.00;;;2.10;;
36441;SDS011;73131;50.820;16.274;2023-11-21T10:16:19;5.88;;;2.25;;
36441;SDS011;73131;50.820;16.274;2023-11-21T10:18:49;4.60;;;2.10;;
36441;SDS011;73131;50.820;16.274;2023-11-21T10:21:20;8.40;;;2.15;;
36441;SDS011;73131;50.820;16.274;2023-11-21T10:23:47;6.68;;;2.33;;
36441;SDS011;73131;50.820;16.274;2023-11-21T10:26:14;6.38;;;2.17;;
36441;SDS011;73131;50.820;16.274;2023-11-21T10:28:58;6.85;;;2.38;;
36441;SDS011;73131;50.820;16.274;2023-11-21T10:31:31;7.72;;;2.80;;
36441;SDS011;73131;50.820;16.274;2023-11-21T10:34:13;6.95;;;3.17;;
36441;SDS011;73131;50.820;16.274;2023-11-21T10:36:43;7.00;;;2.67;;
36441;SDS011;73131;50.820;16.274;2023-11-21T10:39:14;9.00;;;2.60;;
36441;SDS011;73131;50.820;16.274;2023-11-21T10:41:48;6.47;;;2.60;;
36441;SDS011;73131;50.820;16.274;2023-11-21T10:44:19;8.25;;;3.35;;
36441;SDS011;73131;50.820;16.274;2023-11-21T10:46:52;5.93;;;2.33;;
36441;SDS011;73131;50.820;16.274;2023-11-21T10:49:24;5.93;;;2.20;;
36441;SDS011;73131;50.820;16.274;2023-11-21T10:51:53;6.13;;;2.50;;
36441;SDS011;73131;50.820;16.274;2023-11-21T10:54:22;6.85;;;2.28;;
36441;SDS011;73131;50.820;16.274;2023-11-21T10:56:53;5.72;;;2.05;;
36441;SDS011;73131;50.820;16.274;2023-11-21T10:59:23;4.75;;;2.35;;
36441;SDS011;73131;50.820;16.274;2023-11-21T11:01:51;6.05;;;2.65;;
36441;SDS011;73131;50.820;16.274;2023-11-21T11:04:21;4.78;;;2.42;;
36441;SDS011;73131;50.820;16.274;2023-11-21T11:07:02;6.43;;;2.88;;
36441;SDS011;73131;50.820;16.274;2023-11-21T11:09:35;6.13;;;2.65;;
36441;SDS011;73131;50.820;16.274;2023-11-21T11:12:06;7.07;;;2.00;;
36441;SDS011;73131;50.820;16.274;2023-11-21T11:14:36;3.47;;;2.13;;
36441;SDS011;73131;50.820;16.274;2023-11-21T11:17:07;8.43;;;2.60;;
36441;SDS011;73131;50.820;16.274;2023-11-21T11:19:36;5.53;;;2.10;;
36441;SDS011;73131;50.820;16.274;2023-11-21T11:24:49;4.93;;;2.10;;
36441;SDS011;73131;50.820;16.274;2023-11-21T11:33:31;6.38;;;2.35;;
36441;SDS011;73131;50.820;16.274;2023-11-21T11:38:59;4.22;;;1.65;;
36441;SDS011;73131;50.820;16.274;2023-11-21T11:41:31;5.03;;;2.15;;
36441;SDS011;73131;50.820;16.274;2023-11-21T11:44:00;4.40;;;2.00;;
36441;SDS011;73131;50.820;16.274;2023-11-21T11:47:00;4.40;;;1.92;;
36441;SDS011;73131;50.820;16.274;2023-11-21T11:49:24;3.63;;;1.70;;
36441;SDS011;73131;50.820;16.274;2023-11-21T11:54:58;4.18;;;2.22;;
36441;SDS011;73131;50.820;16.274;2023-11-21T11:57:29;5.00;;;2.17;;
36441;SDS011;73131;50.820;16.274;2023-11-21T12:02:35;4.25;;;2.33;;
36441;SDS011;73131;50.820;16.274;2023-11-21T12:05:12;3.88;;;2.13;;
36441;SDS011;73131;50.820;16.274;2023-11-21T12:07:52;6.70;;;2.67;;
36441;SDS011;73131;50.820;16.274;2023-11-21T12:10:29;4.60;;;2.25;;
36441;SDS011;73131;50.820;16.274;2023-11-21T12:13:06;4.32;;;2.30;;
36441;SDS011;73131;50.820;16.274;2023-11-21T12:15:36;4.53;;;2.03;;
36441;SDS011;73131;50.820;16.274;2023-11-21T12:18:07;4.38;;;2.20;;
36441;SDS011;73131;50.820;16.274;2023-11-21T12:20:33;8.13;;;4.03;;
36441;SDS011;73131;50.820;16.274;2023-11-21T12:23:04;5.18;;;2.72;;
36441;SDS011;73131;50.820;16.274;2023-11-21T12:25:31;5.07;;;2.85;;
36441;SDS011;73131;50.820;16.274;2023-11-21T12:28:02;5.25;;;2.83;;
36441;SDS011;73131;50.820;16.274;2023-11-21T12:30:29;6.85;;;2.83;;
36441;SDS011;73131;50.820;16.274;2023-11-21T12:32:57;6.47;;;3.00;;
36441;SDS011;73131;50.820;16.274;2023-11-21T12:35:28;4.53;;;2.50;;
36441;SDS011;73131;50.820;16.274;2023-11-21T12:38:02;4.97;;;2.50;;
36441;SDS011;73131;50.820;16.274;2023-11-21T12:40:31;4.00;;;2.58;;
36441;SDS011;73131;50.820;16.274;2023-11-21T12:43:00;6.95;;;3.00;;
36441;SDS011;73131;50.820;16.274;2023-11-21T12:45:32;7.00;;;3.72;;
36441;SDS011;73131;50.820;16.274;2023-11-21T12:48:04;8.50;;;4.07;;
36441;SDS011;73131;50.820;16.274;2023-11-21T12:50:36;8.73;;;5.18;;
36441;SDS011;73131;50.820;16.274;2023-11-21T12:53:06;13.73;;;4.97;;
36441;SDS011;73131;50.820;16.274;2023-11-21T12:55:36;19.65;;;6.18;;
36441;SDS011;73131;50.820;16.274;2023-11-21T12:58:05;17.30;;;6.72;;
36441;SDS011;73131;50.820;16.274;2023-11-21T13:00:36;22.52;;;7.10;;
36441;SDS011;73131;50.820;16.274;2023-11-21T13:03:10;22.33;;;7.57;;
36441;SDS011;73131;50.820;16.274;2023-11-21T13:05:41;29.10;;;8.10;;
36441;SDS011;73131;50.820;16.274;2023-11-21T13:08:13;13.18;;;8.07;;
36441;SDS011;73131;50.820;16.274;2023-11-21T13:10:40;17.48;;;7.78;;
36441;SDS011;73131;50.820;16.274;2023-11-21T13:13:09;31.05;;;19.88;;
36441;SDS011;73131;50.820;16.274;2023-11-21T13:15:50;20.55;;;8.65;;
36441;SDS011;73131;50.820;16.274;2023-11-21T13:18:37;14.23;;;8.20;;
36441;SDS011;73131;50.820;16.274;2023-11-21T13:21:05;27.92;;;9.43;;
36441;SDS011;73131;50.820;16.274;2023-11-21T13:23:41;26.60;;;9.13;;
36441;SDS011;73131;50.820;16.274;2023-11-21T13:26:11;16.08;;;9.32;;
36441;SDS011;73131;50.820;16.274;2023-11-21T13:28:38;19.60;;;9.18;;
36441;SDS011;73131;50.820;16.274;2023-11-21T13:31:07;29.08;;;10.57;;
36441;SDS011;73131;50.820;16.274;2023-11-21T13:33:49;14.50;;;9.43;;
36441;SDS011;73131;50.820;16.274;2023-11-21T13:36:21;12.88;;;8.52;;
36441;SDS011;73131;50.820;16.274;2023-11-21T13:38:57;15.13;;;10.32;;
36441;SDS011;73131;50.820;16.274;2023-11-21T13:41:32;16.80;;;11.20;;
36441;SDS011;73131;50.820;16.274;2023-11-21T13:44:01;21.15;;;15.23;;
36441;SDS011;73131;50.820;16.274;2023-11-21T13:46:59;29.23;;;11.52;;
36441;SDS011;73131;50.820;16.274;2023-11-21T13:49:28;17.15;;;11.60;;
36441;SDS011;73131;50.820;16.274;2023-11-21T13:52:00;20.95;;;12.52;;
36441;SDS011;73131;50.820;16.274;2023-11-21T13:54:27;16.25;;;11.05;;
36441;SDS011;73131;50.820;16.274;2023-11-21T13:56:57;45.63;;;12.13;;
36441;SDS011;73131;50.820;16.274;2023-11-21T13:59:25;18.70;;;10.27;;
36441;SDS011;73131;50.820;16.274;2023-11-21T14:01:53;23.55;;;11.35;;
36441;SDS011;73131;50.820;16.274;2023-11-21T14:04:26;27.88;;;11.65;;
36441;SDS011;73131;50.820;16.274;2023-11-21T14:07:08;14.73;;;10.30;;
36441;SDS011;73131;50.820;16.274;2023-11-21T14:09:53;20.98;;;11.38;;
36441;SDS011;73131;50.820;16.274;2023-11-21T14:12:20;17.67;;;11.57;;
36441;SDS011;73131;50.820;16.274;2023-11-21T14:14:47;16.67;;;11.45;;
36441;SDS011;73131;50.820;16.274;2023-11-21T14:17:18;18.00;;;12.70;;
36441;SDS011;73131;50.820;16.274;2023-11-21T14:19:49;22.65;;;14.63;;
36441;SDS011;73131;50.820;16.274;2023-11-21T14:22:17;21.00;;;12.75;;
36441;SDS011;73131;50.820;16.274;2023-11-21T14:24:44;29.67;;;12.65;;
36441;SDS011;73131;50.820;16.274;2023-11-21T14:27:12;21.90;;;12.88;;
36441;SDS011;73131;50.820;16.274;2023-11-21T14:29:40;18.80;;;12.98;;
36441;SDS011;73131;50.820;16.274;2023-11-21T14:32:09;17.35;;;10.90;;
36441;SDS011;73131;50.820;16.274;2023-11-21T14:34:39;17.58;;;11.52;;
36441;SDS011;73131;50.820;16.274;2023-11-21T14:37:10;21.05;;;11.93;;
36441;SDS011;73131;50.820;16.274;2023-11-21T14:39:39;19.00;;;11.93;;
36441;SDS011;73131;50.820;16.274;2023-11-21T14:42:11;17.75;;;11.43;;
36441;SDS011;73131;50.820;16.274;2023-11-21T14:44:40;20.05;;;12.57;;
36441;SDS011;73131;50.820;16.274;2023-11-21T14:47:07;19.92;;;11.50;;
36441;SDS011;73131;50.820;16.274;2023-11-21T14:49:41;22.85;;;11.73;;
36441;SDS011;73131;50.820;16.274;2023-11-21T14:52:21;20.73;;;14.95;;
36441;SDS011;73131;50.820;16.274;2023-11-21T14:55:03;15.00;;;10.70;;